sensor_id;sensor_type;location;lat;lon;timestamp;temperature;humidity
18581;DHT22;9420;50.876;7.012;2022-10-18T00:02:13;15.80;99.90
18581;DHT22;9420;50.876;7.012;2022-10-18T00:04:40;15.80;99.90
18581;DHT22;9420;50.876;7.012;2022-10-18T00:07:08;15.80;99.90
18581;DHT22;9420;50.876;7.012;2022-10-18T00:09:34;15.80;99.90
18581;DHT22;9420;50.876;7.012;2022-10-18T00:12:03;15.80;99.90
18581;DHT22;9420;50.876;7.012;2022-10-18T00:14:30;15.80;99.90
18581;DHT22;9420;50.876;7.012;2022-10-18T00:16:57;15.80;99.90
18581;DHT22;9420;50.876;7.012;2022-10-18T00:19:24;15.80;99.90
18581;DHT22;9420;50.876;7.012;2022-10-18T00:21:51;15.80;99.90
18581;DHT22;9420;50.876;7.012;2022-10-18T00:24:18;15.80;99.90
18581;DHT22;9420;50.876;7.012;2022-10-18T00:26:45;15.70;99.90
18581;DHT22;9420;50.876;7.012;2022-10-18T00:29:14;15.70;99.90
18581;DHT22;9420;50.876;7.012;2022-10-18T00:31:42;15.70;99.90
18581;DHT22;9420;50.876;7.012;2022-10-18T00:34:12;15.60;99.90
18581;DHT22;9420;50.876;7.012;2022-10-18T00:36:41;15.60;99.90
18581;DHT22;9420;50.876;7.012;2022-10-18T00:39:14;15.60;99.90
18581;DHT22;9420;50.876;7.012;2022-10-18T00:41:43;15.70;99.90
18581;DHT22;9420;50.876;7.012;2022-10-18T00:47:27;15.70;99.90
18581;DHT22;9420;50.876;7.012;2022-10-18T00:49:56;15.70;99.90
18581;DHT22;9420;50.876;7.012;2022-10-18T00:52:33;15.80;99.90
18581;DHT22;9420;50.876;7.012;2022-10-18T00:55:03;15.70;99.90
18581;DHT22;9420;50.876;7.012;2022-10-18T00:57:32;15.70;99.90
18581;DHT22;9420;50.876;7.012;2022-10-18T01:00:01;15.70;99.90
18581;DHT22;9420;50.876;7.012;2022-10-18T01:02:32;15.80;99.90
18581;DHT22;9420;50.876;7.012;2022-10-18T01:04:59;15.70;99.90
18581;DHT22;9420;50.876;7.012;2022-10-18T01:07:37;15.70;99.90
18581;DHT22;9420;50.876;7.012;2022-10-18T01:10:25;15.70;99.90
18581;DHT22;9420;50.876;7.012;2022-10-18T01:13:09;15.70;99.90
18581;DHT22;9420;50.876;7.012;2022-10-18T01:15:59;15.70;99.90
18581;DHT22;9420;50.876;7.012;2022-10-18T01:18:42;15.70;99.90
18581;DHT22;9420;50.876;7.012;2022-10-18T01:21:28;15.70;99.90
18581;DHT22;9420;50.876;7.012;2022-10-18T01:24:19;15.70;99.90
18581;DHT22;9420;50.876;7.012;2022-10-18T01:27:43;15.70;99.90
18581;DHT22;9420;50.876;7.012;2022-10-18T01:30:35;15.70;99.90
18581;DHT22;9420;50.876;7.012;2022-10-18T01:33:12;15.70;99.90
18581;DHT22;9420;50.876;7.012;2022-10-18T01:35:51;15.70;99.90
18581;DHT22;9420;50.876;7.012;2022-10-18T01:38:24;15.60;99.90
18581;DHT22;9420;50.876;7.012;2022-10-18T01:40:53;15.60;99.90
18581;DHT22;9420;50.876;7.012;2022-10-18T01:43:23;15.70;99.90
18581;DHT22;9420;50.876;7.012;2022-10-18T01:45:55;15.70;99.90
18581;DHT22;9420;50.876;7.012;2022-10-18T01:48:25;15.70;99.90
18581;DHT22;9420;50.876;7.012;2022-10-18T01:50:52;15.80;99.90
18581;DHT22;9420;50.876;7.012;2022-10-18T01:53:27;15.80;99.90
18581;DHT22;9420;50.876;7.012;2022-10-18T01:56:15;15.80;99.90
18581;DHT22;9420;50.876;7.012;2022-10-18T01:58:55;15.90;99.90
18581;DHT22;9420;50.876;7.012;2022-10-18T02:01:38;15.90;99.90
18581;DHT22;9420;50.876;7.012;2022-10-18T02:04:21;15.90;99.90
18581;DHT22;9420;50.876;7.012;2022-10-18T02:07:05;16.00;99.90
18581;DHT22;9420;50.876;7.012;2022-10-18T02:09:39;15.90;99.90
18581;DHT22;9420;50.876;7.012;2022-10-18T02:12:12;15.90;99.90
18581;DHT22;9420;50.876;7.012;2022-10-18T02:14:43;15.90;99.90
18581;DHT22;9420;50.876;7.012;2022-10-18T02:17:14;15.90;99.90
18581;DHT22;9420;50.876;7.012;2022-10-18T02:19:46;16.00;99.90
18581;DHT22;9420;50.876;7.012;2022-10-18T02:22:19;15.90;99.90
18581;DHT22;9420;50.876;7.012;2022-10-18T02:24:52;15.90;99.90
18581;DHT22;9420;50.876;7.012;2022-10-18T02:27:21;15.90;99.90
18581;DHT22;9420;50.876;7.012;2022-10-18T02:29:49;15.90;99.90
18581;DHT22;9420;50.876;7.012;2022-10-18T02:32:23;15.90;99.90
18581;DHT22;9420;50.876;7.012;2022-10-18T02:34:59;15.90;99.90
18581;DHT22;9420;50.876;7.012;2022-10-18T02:37:34;15.90;99.90
18581;DHT22;9420;50.876;7.012;2022-10-18T02:40:04;15.90;99.90
18581;DHT22;9420;50.876;7.012;2022-10-18T02:42:35;15.90;99.90
18581;DHT22;9420;50.876;7.012;2022-10-18T02:45:06;15.90;99.90
18581;DHT22;9420;50.876;7.012;2022-10-18T02:47:34;15.90;99.90
18581;DHT22;9420;50.876;7.012;2022-10-18T02:50:01;16.00;99.90
18581;DHT22;9420;50.876;7.012;2022-10-18T02:52:28;16.00;99.90
18581;DHT22;9420;50.876;7.012;2022-10-18T02:54:55;16.00;99.90
18581;DHT22;9420;50.876;7.012;2022-10-18T02:57:22;15.90;99.90
18581;DHT22;9420;50.876;7.012;2022-10-18T02:59:49;15.90;99.90
18581;DHT22;9420;50.876;7.012;2022-10-18T03:02:16;15.90;99.90
18581;DHT22;9420;50.876;7.012;2022-10-18T03:04:45;15.90;99.90
18581;DHT22;9420;50.876;7.012;2022-10-18T03:07:12;15.90;99.90
18581;DHT22;9420;50.876;7.012;2022-10-18T03:09:39;15.90;99.90
18581;DHT22;9420;50.876;7.012;2022-10-18T03:12:06;15.90;99.90
18581;DHT22;9420;50.876;7.012;2022-10-18T03:14:33;15.90;99.90
18581;DHT22;9420;50.876;7.012;2022-10-18T03:17:00;15.90;99.90
18581;DHT22;9420;50.876;7.012;2022-10-18T03:19:27;15.90;99.90
18581;DHT22;9420;50.876;7.012;2022-10-18T03:21:55;15.90;99.90
18581;DHT22;9420;50.876;7.012;2022-10-18T03:24:22;15.90;99.90
18581;DHT22;9420;50.876;7.012;2022-10-18T03:26:49;15.90;99.90
18581;DHT22;9420;50.876;7.012;2022-10-18T03:29:16;15.90;99.90
18581;DHT22;9420;50.876;7.012;2022-10-18T03:31:43;15.90;99.90
18581;DHT22;9420;50.876;7.012;2022-10-18T03:34:10;15.90;99.90
18581;DHT22;9420;50.876;7.012;2022-10-18T03:36:37;15.90;99.90
18581;DHT22;9420;50.876;7.012;2022-10-18T03:39:07;15.90;99.90
18581;DHT22;9420;50.876;7.012;2022-10-18T03:41:34;16.00;99.90
18581;DHT22;9420;50.876;7.012;2022-10-18T03:44:01;16.00;99.90
18581;DHT22;9420;50.876;7.012;2022-10-18T03:46:28;16.00;99.90
18581;DHT22;9420;50.876;7.012;2022-10-18T03:48:55;16.00;99.90
18581;DHT22;9420;50.876;7.012;2022-10-18T03:51:22;16.00;99.90
18581;DHT22;9420;50.876;7.012;2022-10-18T03:53:49;16.00;99.90
18581;DHT22;9420;50.876;7.012;2022-10-18T03:56:17;15.90;99.90
18581;DHT22;9420;50.876;7.012;2022-10-18T03:58:44;15.90;99.90
18581;DHT22;9420;50.876;7.012;2022-10-18T04:01:11;15.90;99.90
18581;DHT22;9420;50.876;7.012;2022-10-18T04:03:38;15.90;99.90
18581;DHT22;9420;50.876;7.012;2022-10-18T04:06:05;15.90;99.90
18581;DHT22;9420;50.876;7.012;2022-10-18T04:08:34;15.90;99.90
18581;DHT22;9420;50.876;7.012;2022-10-18T04:11:04;15.90;99.90
18581;DHT22;9420;50.876;7.012;2022-10-18T04:13:35;15.80;99.90
18581;DHT22;9420;50.876;7.012;2022-10-18T04:16:03;15.80;99.90
18581;DHT22;9420;50.876;7.012;2022-10-18T04:18:30;15.80;99.90
18581;DHT22;9420;50.876;7.012;2022-10-18T04:20:57;15.80;99.90
18581;DHT22;9420;50.876;7.012;2022-10-18T04:23:24;15.80;99.90
18581;DHT22;9420;50.876;7.012;2022-10-18T04:25:51;15.80;99.90
18581;DHT22;9420;50.876;7.012;2022-10-18T04:28:18;15.80;99.90
18581;DHT22;9420;50.876;7.012;2022-10-18T04:30:50;15.80;99.90
18581;DHT22;9420;50.876;7.012;2022-10-18T04:33:17;15.80;99.90
18581;DHT22;9420;50.876;7.012;2022-10-18T04:35:45;15.80;99.90
18581;DHT22;9420;50.876;7.012;2022-10-18T04:38:12;15.70;99.90
18581;DHT22;9420;50.876;7.012;2022-10-18T04:40:39;15.70;99.90
18581;DHT22;9420;50.876;7.012;2022-10-18T04:43:06;15.80;99.90
18581;DHT22;9420;50.876;7.012;2022-10-18T04:45:33;15.80;99.90
18581;DHT22;9420;50.876;7.012;2022-10-18T04:48:02;15.70;99.90
18581;DHT22;9420;50.876;7.012;2022-10-18T04:50:30;15.70;99.90
18581;DHT22;9420;50.876;7.012;2022-10-18T04:52:57;15.70;99.90
18581;DHT22;9420;50.876;7.012;2022-10-18T04:55:24;15.80;99.90
18581;DHT22;9420;50.876;7.012;2022-10-18T04:57:51;15.80;99.90
18581;DHT22;9420;50.876;7.012;2022-10-18T05:00:19;15.80;99.90
18581;DHT22;9420;50.876;7.012;2022-10-18T05:02:46;15.80;99.90
18581;DHT22;9420;50.876;7.012;2022-10-18T05:05:14;15.80;99.90
18581;DHT22;9420;50.876;7.012;2022-10-18T05:07:41;15.90;99.90
18581;DHT22;9420;50.876;7.012;2022-10-18T05:10:08;15.80;99.90
18581;DHT22;9420;50.876;7.012;2022-10-18T05:12:35;15.80;99.90
18581;DHT22;9420;50.876;7.012;2022-10-18T05:15:05;15.80;99.90
18581;DHT22;9420;50.876;7.012;2022-10-18T05:17:33;15.80;99.90
18581;DHT22;9420;50.876;7.012;2022-10-18T05:20:00;15.90;99.90
18581;DHT22;9420;50.876;7.012;2022-10-18T05:22:28;15.90;99.90
18581;DHT22;9420;50.876;7.012;2022-10-18T05:24:55;15.90;99.90
18581;DHT22;9420;50.876;7.012;2022-10-18T05:27:22;15.90;99.90
18581;DHT22;9420;50.876;7.012;2022-10-18T05:29:49;15.90;99.90
18581;DHT22;9420;50.876;7.012;2022-10-18T05:32:16;15.90;99.90
18581;DHT22;9420;50.876;7.012;2022-10-18T05:34:43;16.00;99.90
18581;DHT22;9420;50.876;7.012;2022-10-18T05:37:10;15.90;99.90
18581;DHT22;9420;50.876;7.012;2022-10-18T05:39:39;15.90;99.90
18581;DHT22;9420;50.876;7.012;2022-10-18T05:42:06;15.90;99.90
18581;DHT22;9420;50.876;7.012;2022-10-18T05:44:33;16.00;99.90
18581;DHT22;9420;50.876;7.012;2022-10-18T05:47:00;16.00;99.90
18581;DHT22;9420;50.876;7.012;2022-10-18T05:49:27;16.00;99.90
18581;DHT22;9420;50.876;7.012;2022-10-18T05:51:54;16.00;99.90
18581;DHT22;9420;50.876;7.012;2022-10-18T05:54:21;16.00;99.90
18581;DHT22;9420;50.876;7.012;2022-10-18T05:56:49;16.00;99.90
18581;DHT22;9420;50.876;7.012;2022-10-18T05:59:16;16.00;99.90
18581;DHT22;9420;50.876;7.012;2022-10-18T06:01:43;16.00;99.90
18581;DHT22;9420;50.876;7.012;2022-10-18T06:04:10;16.10;99.90
18581;DHT22;9420;50.876;7.012;2022-10-18T06:06:38;16.00;99.90
18581;DHT22;9420;50.876;7.012;2022-10-18T06:09:06;16.10;99.90
18581;DHT22;9420;50.876;7.012;2022-10-18T06:11:34;16.00;99.90
18581;DHT22;9420;50.876;7.012;2022-10-18T06:14:03;16.00;99.90
18581;DHT22;9420;50.876;7.012;2022-10-18T06:16:31;16.10;99.90
18581;DHT22;9420;50.876;7.012;2022-10-18T06:18:58;16.10;99.90
18581;DHT22;9420;50.876;7.012;2022-10-18T06:21:25;16.10;99.90
18581;DHT22;9420;50.876;7.012;2022-10-18T06:23:54;16.10;99.90
18581;DHT22;9420;50.876;7.012;2022-10-18T06:26:22;16.10;99.90
18581;DHT22;9420;50.876;7.012;2022-10-18T06:28:50;16.10;99.90
18581;DHT22;9420;50.876;7.012;2022-10-18T06:31:19;16.20;99.90
18581;DHT22;9420;50.876;7.012;2022-10-18T06:33:46;16.10;99.90
18581;DHT22;9420;50.876;7.012;2022-10-18T06:36:16;16.10;99.90
18581;DHT22;9420;50.876;7.012;2022-10-18T06:38:46;16.10;99.90
18581;DHT22;9420;50.876;7.012;2022-10-18T06:41:13;16.10;99.90
18581;DHT22;9420;50.876;7.012;2022-10-18T06:43:40;16.10;99.90
18581;DHT22;9420;50.876;7.012;2022-10-18T06:46:08;16.20;99.90
18581;DHT22;9420;50.876;7.012;2022-10-18T06:48:38;16.20;99.90
18581;DHT22;9420;50.876;7.012;2022-10-18T06:51:06;16.20;99.90
18581;DHT22;9420;50.876;7.012;2022-10-18T06:53:35;16.20;99.90
18581;DHT22;9420;50.876;7.012;2022-10-18T06:56:05;16.10;99.90
18581;DHT22;9420;50.876;7.012;2022-10-18T06:58:34;16.20;99.90
18581;DHT22;9420;50.876;7.012;2022-10-18T07:01:04;16.20;99.90
18581;DHT22;9420;50.876;7.012;2022-10-18T07:03:32;16.20;99.90
18581;DHT22;9420;50.876;7.012;2022-10-18T07:06:02;16.20;99.90
18581;DHT22;9420;50.876;7.012;2022-10-18T07:08:30;16.20;99.90
18581;DHT22;9420;50.876;7.012;2022-10-18T07:10:57;16.20;99.90
18581;DHT22;9420;50.876;7.012;2022-10-18T07:13:27;16.20;99.90
18581;DHT22;9420;50.876;7.012;2022-10-18T07:16:00;16.20;99.90
18581;DHT22;9420;50.876;7.012;2022-10-18T07:18:28;16.20;99.90
18581;DHT22;9420;50.876;7.012;2022-10-18T07:20:56;16.30;99.90
18581;DHT22;9420;50.876;7.012;2022-10-18T07:23:24;16.30;99.90
18581;DHT22;9420;50.876;7.012;2022-10-18T07:25:51;16.30;99.90
18581;DHT22;9420;50.876;7.012;2022-10-18T07:28:18;16.20;99.90
18581;DHT22;9420;50.876;7.012;2022-10-18T07:30:45;16.20;99.90
18581;DHT22;9420;50.876;7.012;2022-10-18T07:33:12;16.30;99.90
18581;DHT22;9420;50.876;7.012;2022-10-18T07:35:39;16.30;99.90
18581;DHT22;9420;50.876;7.012;2022-10-18T07:38:06;16.30;99.90
18581;DHT22;9420;50.876;7.012;2022-10-18T07:40:34;16.30;99.90
18581;DHT22;9420;50.876;7.012;2022-10-18T07:43:02;16.30;99.90
18581;DHT22;9420;50.876;7.012;2022-10-18T07:45:29;16.30;99.90
18581;DHT22;9420;50.876;7.012;2022-10-18T07:47:57;16.30;99.90
18581;DHT22;9420;50.876;7.012;2022-10-18T07:50:24;16.30;99.90
18581;DHT22;9420;50.876;7.012;2022-10-18T07:52:52;16.30;99.90
18581;DHT22;9420;50.876;7.012;2022-10-18T07:55:19;16.30;99.90
18581;DHT22;9420;50.876;7.012;2022-10-18T07:57:47;16.40;99.90
18581;DHT22;9420;50.876;7.012;2022-10-18T08:00:14;16.30;99.90
18581;DHT22;9420;50.876;7.012;2022-10-18T08:02:41;16.30;99.90
18581;DHT22;9420;50.876;7.012;2022-10-18T08:05:08;16.40;99.90
18581;DHT22;9420;50.876;7.012;2022-10-18T08:07:35;16.40;99.90
18581;DHT22;9420;50.876;7.012;2022-10-18T08:10:02;16.50;99.90
18581;DHT22;9420;50.876;7.012;2022-10-18T08:12:30;16.50;99.90
18581;DHT22;9420;50.876;7.012;2022-10-18T08:14:58;16.50;99.90
18581;DHT22;9420;50.876;7.012;2022-10-18T08:17:25;16.50;99.90
18581;DHT22;9420;50.876;7.012;2022-10-18T08:19:52;16.50;99.90
18581;DHT22;9420;50.876;7.012;2022-10-18T08:22:19;16.50;99.90
18581;DHT22;9420;50.876;7.012;2022-10-18T08:24:47;16.50;99.90
18581;DHT22;9420;50.876;7.012;2022-10-18T08:27:14;16.50;99.90
18581;DHT22;9420;50.876;7.012;2022-10-18T08:29:41;16.50;99.90
18581;DHT22;9420;50.876;7.012;2022-10-18T08:32:10;16.50;99.90
18581;DHT22;9420;50.876;7.012;2022-10-18T08:34:37;16.50;99.90
18581;DHT22;9420;50.876;7.012;2022-10-18T08:37:04;16.40;99.90
18581;DHT22;9420;50.876;7.012;2022-10-18T08:39:31;16.40;99.90
18581;DHT22;9420;50.876;7.012;2022-10-18T08:42:16;16.40;99.90
18581;DHT22;9420;50.876;7.012;2022-10-18T08:45:07;16.50;99.90
18581;DHT22;9420;50.876;7.012;2022-10-18T08:47:41;16.40;99.90
18581;DHT22;9420;50.876;7.012;2022-10-18T08:50:13;16.40;99.90
18581;DHT22;9420;50.876;7.012;2022-10-18T08:52:48;16.50;99.90
18581;DHT22;9420;50.876;7.012;2022-10-18T08:55:21;16.50;99.90
18581;DHT22;9420;50.876;7.012;2022-10-18T08:57:53;16.50;99.90
18581;DHT22;9420;50.876;7.012;2022-10-18T09:00:24;16.60;99.90
18581;DHT22;9420;50.876;7.012;2022-10-18T09:03:17;16.60;99.90
18581;DHT22;9420;50.876;7.012;2022-10-18T09:05:53;16.60;99.90
18581;DHT22;9420;50.876;7.012;2022-10-18T09:08:36;16.60;99.90
18581;DHT22;9420;50.876;7.012;2022-10-18T09:11:26;16.70;99.90
18581;DHT22;9420;50.876;7.012;2022-10-18T09:14:27;16.70;99.90
18581;DHT22;9420;50.876;7.012;2022-10-18T09:17:11;16.80;99.90
18581;DHT22;9420;50.876;7.012;2022-10-18T09:19:59;16.80;99.90
18581;DHT22;9420;50.876;7.012;2022-10-18T09:22:50;16.90;99.90
18581;DHT22;9420;50.876;7.012;2022-10-18T09:25:20;16.90;99.90
18581;DHT22;9420;50.876;7.012;2022-10-18T09:27:52;17.00;99.90
18581;DHT22;9420;50.876;7.012;2022-10-18T09:30:32;17.00;99.90
18581;DHT22;9420;50.876;7.012;2022-10-18T09:33:16;17.00;99.90
18581;DHT22;9420;50.876;7.012;2022-10-18T09:35:55;17.00;99.90
18581;DHT22;9420;50.876;7.012;2022-10-18T09:38:27;16.90;99.90
18581;DHT22;9420;50.876;7.012;2022-10-18T09:41:01;17.00;99.90
18581;DHT22;9420;50.876;7.012;2022-10-18T09:43:41;17.10;99.90
18581;DHT22;9420;50.876;7.012;2022-10-18T09:46:13;17.20;99.90
18581;DHT22;9420;50.876;7.012;2022-10-18T09:48:45;17.40;99.90
18581;DHT22;9420;50.876;7.012;2022-10-18T09:51:19;17.60;99.90
18581;DHT22;9420;50.876;7.012;2022-10-18T09:54:05;17.70;99.90
18581;DHT22;9420;50.876;7.012;2022-10-18T09:56:45;17.60;99.90
18581;DHT22;9420;50.876;7.012;2022-10-18T09:59:28;17.50;99.90
18581;DHT22;9420;50.876;7.012;2022-10-18T10:01:59;17.50;99.90
18581;DHT22;9420;50.876;7.012;2022-10-18T10:04:26;17.70;99.90
18581;DHT22;9420;50.876;7.012;2022-10-18T10:06:56;17.70;99.90
18581;DHT22;9420;50.876;7.012;2022-10-18T10:09:27;17.70;99.90
18581;DHT22;9420;50.876;7.012;2022-10-18T10:11:57;17.70;99.90
18581;DHT22;9420;50.876;7.012;2022-10-18T10:14:26;17.60;99.90
18581;DHT22;9420;50.876;7.012;2022-10-18T10:16:56;17.70;99.90
18581;DHT22;9420;50.876;7.012;2022-10-18T10:19:29;17.80;99.90
18581;DHT22;9420;50.876;7.012;2022-10-18T10:22:05;17.70;99.90
18581;DHT22;9420;50.876;7.012;2022-10-18T10:24:43;17.70;99.90
18581;DHT22;9420;50.876;7.012;2022-10-18T10:27:17;17.70;99.90
18581;DHT22;9420;50.876;7.012;2022-10-18T10:29:52;17.50;99.90
18581;DHT22;9420;50.876;7.012;2022-10-18T10:32:28;17.60;99.90
18581;DHT22;9420;50.876;7.012;2022-10-18T10:34:57;17.60;99.90
18581;DHT22;9420;50.876;7.012;2022-10-18T10:37:32;17.60;99.90
18581;DHT22;9420;50.876;7.012;2022-10-18T10:40:13;17.60;99.90
18581;DHT22;9420;50.876;7.012;2022-10-18T10:43:02;17.60;99.90
18581;DHT22;9420;50.876;7.012;2022-10-18T10:45:34;17.60;99.90
18581;DHT22;9420;50.876;7.012;2022-10-18T10:48:10;17.60;99.90
18581;DHT22;9420;50.876;7.012;2022-10-18T10:50:50;17.60;99.90
18581;DHT22;9420;50.876;7.012;2022-10-18T10:53:34;17.60;99.90
18581;DHT22;9420;50.876;7.012;2022-10-18T10:56:11;17.50;99.90
18581;DHT22;9420;50.876;7.012;2022-10-18T10:58:42;17.50;99.90
18581;DHT22;9420;50.876;7.012;2022-10-18T11:04:22;17.50;99.90
18581;DHT22;9420;50.876;7.012;2022-10-18T11:07:04;17.60;99.90
18581;DHT22;9420;50.876;7.012;2022-10-18T11:09:53;17.70;99.90
18581;DHT22;9420;50.876;7.012;2022-10-18T11:12:32;17.80;99.90
18581;DHT22;9420;50.876;7.012;2022-10-18T11:15:09;17.90;99.90
18581;DHT22;9420;50.876;7.012;2022-10-18T11:17:46;17.90;99.90
18581;DHT22;9420;50.876;7.012;2022-10-18T11:20:25;17.90;99.90
18581;DHT22;9420;50.876;7.012;2022-10-18T11:22:59;17.80;99.90
18581;DHT22;9420;50.876;7.012;2022-10-18T11:25:57;17.80;99.90
18581;DHT22;9420;50.876;7.012;2022-10-18T11:28:43;17.80;99.90
18581;DHT22;9420;50.876;7.012;2022-10-18T11:31:31;17.90;99.90
18581;DHT22;9420;50.876;7.012;2022-10-18T11:34:44;18.00;99.90
18581;DHT22;9420;50.876;7.012;2022-10-18T11:37:31;18.20;99.90
18581;DHT22;9420;50.876;7.012;2022-10-18T11:40:24;18.20;99.90
18581;DHT22;9420;50.876;7.012;2022-10-18T11:43:05;18.10;99.90
18581;DHT22;9420;50.876;7.012;2022-10-18T11:45:42;18.10;99.90
18581;DHT22;9420;50.876;7.012;2022-10-18T11:48:42;18.10;99.90
18581;DHT22;9420;50.876;7.012;2022-10-18T11:51:32;18.20;99.90
18581;DHT22;9420;50.876;7.012;2022-10-18T11:54:26;18.40;99.90
18581;DHT22;9420;50.876;7.012;2022-10-18T11:57:13;18.40;99.90
18581;DHT22;9420;50.876;7.012;2022-10-18T12:00:06;18.50;99.90
18581;DHT22;9420;50.876;7.012;2022-10-18T12:03:02;18.50;99.90
18581;DHT22;9420;50.876;7.012;2022-10-18T12:05:46;18.40;99.90
18581;DHT22;9420;50.876;7.012;2022-10-18T12:08:20;18.40;99.90
18581;DHT22;9420;50.876;7.012;2022-10-18T12:11:09;18.30;99.90
18581;DHT22;9420;50.876;7.012;2022-10-18T12:13:44;18.30;99.90
18581;DHT22;9420;50.876;7.012;2022-10-18T12:16:19;18.30;99.90
18581;DHT22;9420;50.876;7.012;2022-10-18T12:19:06;18.30;99.90
18581;DHT22;9420;50.876;7.012;2022-10-18T12:21:40;18.40;99.90
18581;DHT22;9420;50.876;7.012;2022-10-18T12:24:15;18.50;99.90
18581;DHT22;9420;50.876;7.012;2022-10-18T12:26:49;18.50;99.90
18581;DHT22;9420;50.876;7.012;2022-10-18T12:29:26;18.50;99.90
18581;DHT22;9420;50.876;7.012;2022-10-18T12:32:02;18.50;99.90
18581;DHT22;9420;50.876;7.012;2022-10-18T12:34:47;18.90;99.90
18581;DHT22;9420;50.876;7.012;2022-10-18T12:37:54;19.00;99.90
18581;DHT22;9420;50.876;7.012;2022-10-18T12:40:33;18.80;99.90
18581;DHT22;9420;50.876;7.012;2022-10-18T12:43:08;18.80;99.90
18581;DHT22;9420;50.876;7.012;2022-10-18T12:45:48;18.80;99.90
18581;DHT22;9420;50.876;7.012;2022-10-18T12:48:31;18.90;99.90
18581;DHT22;9420;50.876;7.012;2022-10-18T12:51:05;19.40;99.90
18581;DHT22;9420;50.876;7.012;2022-10-18T12:53:39;20.00;99.90
18581;DHT22;9420;50.876;7.012;2022-10-18T12:56:36;20.40;99.90
18581;DHT22;9420;50.876;7.012;2022-10-18T13:02:29;19.90;99.90
18581;DHT22;9420;50.876;7.012;2022-10-18T13:04:58;19.70;99.90
18581;DHT22;9420;50.876;7.012;2022-10-18T13:07:37;19.90;99.90
18581;DHT22;9420;50.876;7.012;2022-10-18T13:10:39;21.10;99.90
18581;DHT22;9420;50.876;7.012;2022-10-18T13:16:31;23.50;99.90
18581;DHT22;9420;50.876;7.012;2022-10-18T13:19:19;24.00;99.90
18581;DHT22;9420;50.876;7.012;2022-10-18T13:22:08;24.10;99.90
18581;DHT22;9420;50.876;7.012;2022-10-18T13:24:55;24.00;99.90
18581;DHT22;9420;50.876;7.012;2022-10-18T13:27:37;23.10;99.90
18581;DHT22;9420;50.876;7.012;2022-10-18T13:30:25;22.30;99.90
18581;DHT22;9420;50.876;7.012;2022-10-18T13:33:06;22.00;99.90
18581;DHT22;9420;50.876;7.012;2022-10-18T13:35:52;22.40;99.90
18581;DHT22;9420;50.876;7.012;2022-10-18T13:38:44;22.50;99.90
18581;DHT22;9420;50.876;7.012;2022-10-18T13:41:15;22.00;99.90
18581;DHT22;9420;50.876;7.012;2022-10-18T13:50:26;21.30;99.90
18581;DHT22;9420;50.876;7.012;2022-10-18T13:56:32;21.80;99.90
18581;DHT22;9420;50.876;7.012;2022-10-18T14:02:44;22.10;99.90
18581;DHT22;9420;50.876;7.012;2022-10-18T14:05:41;22.60;99.90
18581;DHT22;9420;50.876;7.012;2022-10-18T14:08:19;23.70;99.90
18581;DHT22;9420;50.876;7.012;2022-10-18T14:10:57;23.40;99.90
18581;DHT22;9420;50.876;7.012;2022-10-18T14:13:35;22.50;99.90
18581;DHT22;9420;50.876;7.012;2022-10-18T14:16:23;21.40;99.90
18581;DHT22;9420;50.876;7.012;2022-10-18T14:19:04;21.40;99.90
18581;DHT22;9420;50.876;7.012;2022-10-18T14:21:50;22.50;99.90
18581;DHT22;9420;50.876;7.012;2022-10-18T14:24:23;23.10;99.90
18581;DHT22;9420;50.876;7.012;2022-10-18T14:27:09;23.00;99.90
18581;DHT22;9420;50.876;7.012;2022-10-18T14:29:39;23.00;99.90
18581;DHT22;9420;50.876;7.012;2022-10-18T14:32:09;22.70;99.90
18581;DHT22;9420;50.876;7.012;2022-10-18T14:34:44;22.70;99.90
18581;DHT22;9420;50.876;7.012;2022-10-18T14:37:20;23.30;99.90
18581;DHT22;9420;50.876;7.012;2022-10-18T14:39:53;23.40;99.90
18581;DHT22;9420;50.876;7.012;2022-10-18T14:42:21;23.70;99.90
18581;DHT22;9420;50.876;7.012;2022-10-18T14:44:52;23.60;99.90
18581;DHT22;9420;50.876;7.012;2022-10-18T14:47:21;23.90;99.90
18581;DHT22;9420;50.876;7.012;2022-10-18T14:49:50;23.90;99.90
18581;DHT22;9420;50.876;7.012;2022-10-18T14:52:24;24.10;99.90
18581;DHT22;9420;50.876;7.012;2022-10-18T14:54:53;24.10;99.90
18581;DHT22;9420;50.876;7.012;2022-10-18T14:57:24;23.80;99.90
18581;DHT22;9420;50.876;7.012;2022-10-18T14:59:58;23.50;99.90
18581;DHT22;9420;50.876;7.012;2022-10-18T15:02:28;24.10;99.90
18581;DHT22;9420;50.876;7.012;2022-10-18T15:04:59;24.20;99.90
18581;DHT22;9420;50.876;7.012;2022-10-18T15:07:32;23.90;99.90
18581;DHT22;9420;50.876;7.012;2022-10-18T15:10:01;23.50;99.90
18581;DHT22;9420;50.876;7.012;2022-10-18T15:12:31;23.40;99.90
18581;DHT22;9420;50.876;7.012;2022-10-18T15:15:02;22.90;99.90
18581;DHT22;9420;50.876;7.012;2022-10-18T15:17:30;22.80;99.90
18581;DHT22;9420;50.876;7.012;2022-10-18T15:20:00;22.70;99.90
18581;DHT22;9420;50.876;7.012;2022-10-18T15:22:31;21.80;99.90
18581;DHT22;9420;50.876;7.012;2022-10-18T15:25:14;20.80;99.90
18581;DHT22;9420;50.876;7.012;2022-10-18T15:27:45;20.10;99.90
18581;DHT22;9420;50.876;7.012;2022-10-18T15:30:19;19.60;99.90
18581;DHT22;9420;50.876;7.012;2022-10-18T15:32:51;19.30;99.90
18581;DHT22;9420;50.876;7.012;2022-10-18T15:35:24;19.10;99.90
18581;DHT22;9420;50.876;7.012;2022-10-18T15:37:53;18.90;99.90
18581;DHT22;9420;50.876;7.012;2022-10-18T15:40:36;18.70;99.90
18581;DHT22;9420;50.876;7.012;2022-10-18T15:46:04;18.40;99.90
18581;DHT22;9420;50.876;7.012;2022-10-18T15:48:36;18.20;99.90
18581;DHT22;9420;50.876;7.012;2022-10-18T15:51:05;18.20;99.90
18581;DHT22;9420;50.876;7.012;2022-10-18T15:53:40;18.00;99.90
18581;DHT22;9420;50.876;7.012;2022-10-18T15:56:30;18.00;99.90
18581;DHT22;9420;50.876;7.012;2022-10-18T15:59:00;17.80;99.90
18581;DHT22;9420;50.876;7.012;2022-10-18T16:01:35;17.70;99.90
18581;DHT22;9420;50.876;7.012;2022-10-18T16:04:07;17.60;99.90
18581;DHT22;9420;50.876;7.012;2022-10-18T16:06:39;17.50;99.90
18581;DHT22;9420;50.876;7.012;2022-10-18T16:09:08;17.40;99.90
18581;DHT22;9420;50.876;7.012;2022-10-18T16:11:40;17.40;99.90
18581;DHT22;9420;50.876;7.012;2022-10-18T16:14:07;17.30;99.90
18581;DHT22;9420;50.876;7.012;2022-10-18T16:16:36;17.20;99.90
18581;DHT22;9420;50.876;7.012;2022-10-18T16:19:06;17.20;99.90
18581;DHT22;9420;50.876;7.012;2022-10-18T16:21:34;17.00;99.90
18581;DHT22;9420;50.876;7.012;2022-10-18T16:24:03;16.90;99.90
18581;DHT22;9420;50.876;7.012;2022-10-18T16:26:31;16.70;99.90
18581;DHT22;9420;50.876;7.012;2022-10-18T16:28:59;16.60;99.90
18581;DHT22;9420;50.876;7.012;2022-10-18T16:31:28;16.50;99.90
18581;DHT22;9420;50.876;7.012;2022-10-18T16:33:58;16.50;99.90
18581;DHT22;9420;50.876;7.012;2022-10-18T16:36:27;16.50;99.90
18581;DHT22;9420;50.876;7.012;2022-10-18T16:38:59;16.30;99.90
18581;DHT22;9420;50.876;7.012;2022-10-18T16:41:28;16.10;99.90
18581;DHT22;9420;50.876;7.012;2022-10-18T16:43:55;16.00;99.90
18581;DHT22;9420;50.876;7.012;2022-10-18T16:46:23;15.90;99.90
18581;DHT22;9420;50.876;7.012;2022-10-18T16:48:52;15.80;99.90
18581;DHT22;9420;50.876;7.012;2022-10-18T16:51:21;15.80;99.90
18581;DHT22;9420;50.876;7.012;2022-10-18T16:53:49;15.60;99.90